sensor_id;sensor_type;location;lat;lon;timestamp;P1;durP1;ratioP1;P2;durP2;ratioP2
42668;SDS011;29384;42.028;21.388;2022-11-09T00:01:17;35.75;;;17.40;;
42668;SDS011;29384;42.028;21.388;2022-11-09T00:03:42;38.13;;;17.63;;
42668;SDS011;29384;42.028;21.388;2022-11-09T00:06:08;31.48;;;16.23;;
42668;SDS011;29384;42.028;21.388;2022-11-09T00:08:37;32.08;;;15.43;;
42668;SDS011;29384;42.028;21.388;2022-11-09T00:11:04;28.80;;;15.00;;
42668;SDS011;29384;42.028;21.388;2022-11-09T00:13:34;32.80;;;16.75;;
42668;SDS011;29384;42.028;21.388;2022-11-09T00:16:00;33.58;;;16.67;;
42668;SDS011;29384;42.028;21.388;2022-11-09T00:18:27;33.72;;;16.92;;
42668;SDS011;29384;42.028;21.388;2022-11-09T00:20:53;28.15;;;17.52;;
42668;SDS011;29384;42.028;21.388;2022-11-09T00:23:19;32.50;;;15.15;;
42668;SDS011;29384;42.028;21.388;2022-11-09T00:25:44;30.15;;;17.00;;
42668;SDS011;29384;42.028;21.388;2022-11-09T00:28:11;31.23;;;17.02;;
42668;SDS011;29384;42.028;21.388;2022-11-09T00:30:37;29.33;;;15.90;;
42668;SDS011;29384;42.028;21.388;2022-11-09T00:33:03;37.67;;;18.42;;
42668;SDS011;29384;42.028;21.388;2022-11-09T00:35:29;40.53;;;19.05;;
42668;SDS011;29384;42.028;21.388;2022-11-09T00:37:54;51.65;;;21.27;;
42668;SDS011;29384;42.028;21.388;2022-11-09T00:40:20;41.13;;;20.63;;
42668;SDS011;29384;42.028;21.388;2022-11-09T00:42:45;42.60;;;21.40;;
42668;SDS011;29384;42.028;21.388;2022-11-09T00:45:11;44.40;;;20.25;;
42668;SDS011;29384;42.028;21.388;2022-11-09T00:47:36;42.83;;;19.52;;
42668;SDS011;29384;42.028;21.388;2022-11-09T00:50:02;36.42;;;18.95;;
42668;SDS011;29384;42.028;21.388;2022-11-09T00:52:28;42.42;;;18.42;;
42668;SDS011;29384;42.028;21.388;2022-11-09T00:54:54;37.47;;;18.75;;
42668;SDS011;29384;42.028;21.388;2022-11-09T00:57:19;65.78;;;20.88;;
42668;SDS011;29384;42.028;21.388;2022-11-09T00:59:45;49.70;;;20.17;;
42668;SDS011;29384;42.028;21.388;2022-11-09T01:02:10;42.75;;;18.90;;
42668;SDS011;29384;42.028;21.388;2022-11-09T01:04:35;40.53;;;18.73;;
42668;SDS011;29384;42.028;21.388;2022-11-09T01:07:01;33.40;;;17.17;;
42668;SDS011;29384;42.028;21.388;2022-11-09T01:12:48;36.72;;;17.02;;
42668;SDS011;29384;42.028;21.388;2022-11-09T01:15:14;38.13;;;14.85;;
42668;SDS011;29384;42.028;21.388;2022-11-09T01:17:41;35.38;;;17.00;;
42668;SDS011;29384;42.028;21.388;2022-11-09T01:20:06;34.33;;;16.42;;
42668;SDS011;29384;42.028;21.388;2022-11-09T01:22:32;34.45;;;16.50;;
42668;SDS011;29384;42.028;21.388;2022-11-09T01:24:58;35.75;;;17.42;;
42668;SDS011;29384;42.028;21.388;2022-11-09T01:27:23;34.28;;;16.48;;
42668;SDS011;29384;42.028;21.388;2022-11-09T01:29:48;41.05;;;18.17;;
42668;SDS011;29384;42.028;21.388;2022-11-09T01:32:14;42.83;;;20.20;;
42668;SDS011;29384;42.028;21.388;2022-11-09T01:34:39;41.67;;;20.20;;
42668;SDS011;29384;42.028;21.388;2022-11-09T01:37:05;43.50;;;20.33;;
42668;SDS011;29384;42.028;21.388;2022-11-09T01:43:32;39.70;;;19.85;;
42668;SDS011;29384;42.028;21.388;2022-11-09T01:46:00;68.30;;;25.08;;
42668;SDS011;29384;42.028;21.388;2022-11-09T01:51:08;47.20;;;23.92;;
42668;SDS011;29384;42.028;21.388;2022-11-09T01:57:32;51.38;;;21.88;;
42668;SDS011;29384;42.028;21.388;2022-11-09T02:00:09;45.45;;;21.33;;
42668;SDS011;29384;42.028;21.388;2022-11-09T02:02:37;55.17;;;21.50;;
42668;SDS011;29384;42.028;21.388;2022-11-09T02:05:09;46.72;;;21.10;;
42668;SDS011;29384;42.028;21.388;2022-11-09T02:07:38;55.80;;;21.83;;
42668;SDS011;29384;42.028;21.388;2022-11-09T02:12:46;51.42;;;23.00;;
42668;SDS011;29384;42.028;21.388;2022-11-09T02:15:12;52.42;;;23.95;;
42668;SDS011;29384;42.028;21.388;2022-11-09T02:17:38;55.65;;;25.52;;
42668;SDS011;29384;42.028;21.388;2022-11-09T02:20:10;58.60;;;26.35;;
42668;SDS011;29384;42.028;21.388;2022-11-09T02:22:37;53.70;;;22.88;;
42668;SDS011;29384;42.028;21.388;2022-11-09T02:25:03;53.05;;;25.17;;
42668;SDS011;29384;42.028;21.388;2022-11-09T02:27:29;58.40;;;24.35;;
42668;SDS011;29384;42.028;21.388;2022-11-09T02:29:55;51.35;;;24.52;;
42668;SDS011;29384;42.028;21.388;2022-11-09T02:32:23;47.47;;;22.92;;
42668;SDS011;29384;42.028;21.388;2022-11-09T02:34:52;45.20;;;21.48;;
42668;SDS011;29384;42.028;21.388;2022-11-09T02:43:20;39.20;;;21.13;;
42668;SDS011;29384;42.028;21.388;2022-11-09T02:45:46;45.80;;;22.48;;
42668;SDS011;29384;42.028;21.388;2022-11-09T02:48:11;40.30;;;21.42;;
42668;SDS011;29384;42.028;21.388;2022-11-09T02:50:37;38.75;;;20.92;;
42668;SDS011;29384;42.028;21.388;2022-11-09T02:53:02;37.65;;;20.52;;
42668;SDS011;29384;42.028;21.388;2022-11-09T02:55:28;36.70;;;20.60;;
42668;SDS011;29384;42.028;21.388;2022-11-09T02:57:53;44.63;;;21.35;;
42668;SDS011;29384;42.028;21.388;2022-11-09T03:00:19;43.47;;;21.67;;
42668;SDS011;29384;42.028;21.388;2022-11-09T03:02:44;47.75;;;20.75;;
42668;SDS011;29384;42.028;21.388;2022-11-09T03:05:10;47.40;;;21.73;;
42668;SDS011;29384;42.028;21.388;2022-11-09T03:07:35;35.72;;;19.23;;
42668;SDS011;29384;42.028;21.388;2022-11-09T03:13:22;36.78;;;20.55;;
42668;SDS011;29384;42.028;21.388;2022-11-09T03:15:48;31.80;;;18.52;;
42668;SDS011;29384;42.028;21.388;2022-11-09T03:18:13;41.83;;;21.33;;
42668;SDS011;29384;42.028;21.388;2022-11-09T03:20:39;42.78;;;20.85;;
42668;SDS011;29384;42.028;21.388;2022-11-09T03:23:04;45.35;;;22.58;;
42668;SDS011;29384;42.028;21.388;2022-11-09T03:25:30;40.92;;;21.15;;
42668;SDS011;29384;42.028;21.388;2022-11-09T03:27:56;41.45;;;22.13;;
42668;SDS011;29384;42.028;21.388;2022-11-09T03:30:22;42.65;;;21.88;;
42668;SDS011;29384;42.028;21.388;2022-11-09T03:32:48;39.35;;;22.10;;
42668;SDS011;29384;42.028;21.388;2022-11-09T03:35:13;56.90;;;23.75;;
42668;SDS011;29384;42.028;21.388;2022-11-09T03:37:39;70.30;;;25.67;;
42668;SDS011;29384;42.028;21.388;2022-11-09T03:43:27;95.35;;;27.98;;
42668;SDS011;29384;42.028;21.388;2022-11-09T03:45:53;74.30;;;26.08;;
42668;SDS011;29384;42.028;21.388;2022-11-09T03:48:18;138.10;;;34.78;;
42668;SDS011;29384;42.028;21.388;2022-11-09T03:50:44;82.38;;;30.35;;
42668;SDS011;29384;42.028;21.388;2022-11-09T03:53:09;77.45;;;29.90;;
42668;SDS011;29384;42.028;21.388;2022-11-09T03:55:36;90.97;;;28.63;;
42668;SDS011;29384;42.028;21.388;2022-11-09T03:58:02;95.20;;;27.95;;
42668;SDS011;29384;42.028;21.388;2022-11-09T04:00:29;68.97;;;27.38;;
42668;SDS011;29384;42.028;21.388;2022-11-09T04:02:55;75.07;;;28.52;;
42668;SDS011;29384;42.028;21.388;2022-11-09T04:05:20;67.38;;;26.95;;
42668;SDS011;29384;42.028;21.388;2022-11-09T04:07:50;78.32;;;28.20;;
42668;SDS011;29384;42.028;21.388;2022-11-09T04:13:38;65.55;;;25.20;;
42668;SDS011;29384;42.028;21.388;2022-11-09T04:16:04;69.80;;;25.50;;
42668;SDS011;29384;42.028;21.388;2022-11-09T04:18:29;53.65;;;23.55;;
42668;SDS011;29384;42.028;21.388;2022-11-09T04:20:56;61.90;;;25.00;;
42668;SDS011;29384;42.028;21.388;2022-11-09T04:23:23;78.65;;;28.77;;
42668;SDS011;29384;42.028;21.388;2022-11-09T04:25:48;70.75;;;28.15;;
42668;SDS011;29384;42.028;21.388;2022-11-09T04:28:14;74.75;;;26.23;;
42668;SDS011;29384;42.028;21.388;2022-11-09T04:30:39;67.85;;;27.63;;
42668;SDS011;29384;42.028;21.388;2022-11-09T04:33:05;57.55;;;27.52;;
42668;SDS011;29384;42.028;21.388;2022-11-09T04:35:31;59.88;;;28.45;;
42668;SDS011;29384;42.028;21.388;2022-11-09T04:37:58;75.13;;;26.90;;
42668;SDS011;29384;42.028;21.388;2022-11-09T04:43:48;82.93;;;31.83;;
42668;SDS011;29384;42.028;21.388;2022-11-09T04:46:13;74.55;;;31.33;;
42668;SDS011;29384;42.028;21.388;2022-11-09T04:48:39;82.28;;;33.78;;
42668;SDS011;29384;42.028;21.388;2022-11-09T04:51:05;80.90;;;37.03;;
42668;SDS011;29384;42.028;21.388;2022-11-09T04:53:34;69.25;;;31.70;;
42668;SDS011;29384;42.028;21.388;2022-11-09T04:56:01;70.47;;;32.47;;
42668;SDS011;29384;42.028;21.388;2022-11-09T04:58:27;61.97;;;28.95;;
42668;SDS011;29384;42.028;21.388;2022-11-09T05:00:52;69.40;;;29.77;;
42668;SDS011;29384;42.028;21.388;2022-11-09T05:03:19;74.20;;;31.13;;
42668;SDS011;29384;42.028;21.388;2022-11-09T05:05:44;49.63;;;26.83;;
42668;SDS011;29384;42.028;21.388;2022-11-09T05:08:10;80.90;;;32.95;;
42668;SDS011;29384;42.028;21.388;2022-11-09T05:13:57;61.03;;;27.85;;
42668;SDS011;29384;42.028;21.388;2022-11-09T05:16:24;56.35;;;25.27;;
42668;SDS011;29384;42.028;21.388;2022-11-09T05:18:50;62.17;;;26.90;;
42668;SDS011;29384;42.028;21.388;2022-11-09T05:21:16;55.92;;;26.60;;
42668;SDS011;29384;42.028;21.388;2022-11-09T05:23:42;63.03;;;30.25;;
42668;SDS011;29384;42.028;21.388;2022-11-09T05:26:23;59.60;;;27.65;;
42668;SDS011;29384;42.028;21.388;2022-11-09T05:28:53;67.85;;;31.23;;
42668;SDS011;29384;42.028;21.388;2022-11-09T05:31:19;56.72;;;26.88;;
42668;SDS011;29384;42.028;21.388;2022-11-09T05:33:47;58.33;;;26.83;;
42668;SDS011;29384;42.028;21.388;2022-11-09T05:36:14;53.67;;;25.65;;
42668;SDS011;29384;42.028;21.388;2022-11-09T05:38:39;61.00;;;27.63;;
42668;SDS011;29384;42.028;21.388;2022-11-09T05:41:05;67.95;;;26.90;;
42668;SDS011;29384;42.028;21.388;2022-11-09T05:43:30;58.72;;;29.25;;
42668;SDS011;29384;42.028;21.388;2022-11-09T05:45:56;54.33;;;27.00;;
42668;SDS011;29384;42.028;21.388;2022-11-09T05:48:21;62.33;;;29.63;;
42668;SDS011;29384;42.028;21.388;2022-11-09T05:50:46;59.47;;;26.90;;
42668;SDS011;29384;42.028;21.388;2022-11-09T05:53:12;62.28;;;29.83;;
42668;SDS011;29384;42.028;21.388;2022-11-09T05:58:59;56.63;;;27.85;;
42668;SDS011;29384;42.028;21.388;2022-11-09T06:01:24;56.75;;;25.45;;
42668;SDS011;29384;42.028;21.388;2022-11-09T06:03:52;54.83;;;23.63;;
42668;SDS011;29384;42.028;21.388;2022-11-09T06:06:18;44.83;;;23.73;;
42668;SDS011;29384;42.028;21.388;2022-11-09T06:08:43;44.42;;;22.00;;
42668;SDS011;29384;42.028;21.388;2022-11-09T06:11:10;38.38;;;21.17;;
42668;SDS011;29384;42.028;21.388;2022-11-09T06:13:36;48.90;;;22.88;;
42668;SDS011;29384;42.028;21.388;2022-11-09T06:16:03;37.42;;;21.00;;
42668;SDS011;29384;42.028;21.388;2022-11-09T06:18:30;51.03;;;22.98;;
42668;SDS011;29384;42.028;21.388;2022-11-09T06:20:58;43.03;;;22.25;;
42668;SDS011;29384;42.028;21.388;2022-11-09T06:23:25;45.70;;;22.08;;
42668;SDS011;29384;42.028;21.388;2022-11-09T06:29:13;36.97;;;22.15;;
42668;SDS011;29384;42.028;21.388;2022-11-09T06:31:38;39.85;;;21.45;;
42668;SDS011;29384;42.028;21.388;2022-11-09T06:34:03;35.65;;;20.92;;
42668;SDS011;29384;42.028;21.388;2022-11-09T06:36:29;42.40;;;20.85;;
42668;SDS011;29384;42.028;21.388;2022-11-09T06:38:54;40.72;;;20.05;;
42668;SDS011;29384;42.028;21.388;2022-11-09T06:41:20;35.92;;;20.80;;
42668;SDS011;29384;42.028;21.388;2022-11-09T06:43:45;41.70;;;22.38;;
42668;SDS011;29384;42.028;21.388;2022-11-09T06:46:11;35.60;;;21.45;;
42668;SDS011;29384;42.028;21.388;2022-11-09T06:48:37;42.03;;;24.52;;
42668;SDS011;29384;42.028;21.388;2022-11-09T06:51:03;44.25;;;22.20;;
42668;SDS011;29384;42.028;21.388;2022-11-09T06:53:30;44.17;;;21.17;;
42668;SDS011;29384;42.028;21.388;2022-11-09T06:59:19;33.92;;;21.05;;
42668;SDS011;29384;42.028;21.388;2022-11-09T07:01:44;40.45;;;19.65;;
42668;SDS011;29384;42.028;21.388;2022-11-09T07:04:11;42.92;;;21.77;;
42668;SDS011;29384;42.028;21.388;2022-11-09T07:06:39;39.95;;;20.80;;
42668;SDS011;29384;42.028;21.388;2022-11-09T07:09:05;41.13;;;21.50;;
42668;SDS011;29384;42.028;21.388;2022-11-09T07:11:31;37.35;;;21.88;;
42668;SDS011;29384;42.028;21.388;2022-11-09T07:13:56;37.30;;;21.80;;
42668;SDS011;29384;42.028;21.388;2022-11-09T07:16:22;48.15;;;21.27;;
42668;SDS011;29384;42.028;21.388;2022-11-09T07:18:47;53.65;;;22.05;;
42668;SDS011;29384;42.028;21.388;2022-11-09T07:21:13;37.85;;;20.92;;
42668;SDS011;29384;42.028;21.388;2022-11-09T07:23:39;38.25;;;21.90;;
42668;SDS011;29384;42.028;21.388;2022-11-09T07:29:26;41.78;;;21.52;;
42668;SDS011;29384;42.028;21.388;2022-11-09T07:31:51;47.53;;;20.48;;
42668;SDS011;29384;42.028;21.388;2022-11-09T07:34:17;39.90;;;20.63;;
42668;SDS011;29384;42.028;21.388;2022-11-09T07:36:42;39.67;;;20.67;;
42668;SDS011;29384;42.028;21.388;2022-11-09T07:39:08;36.90;;;19.63;;
42668;SDS011;29384;42.028;21.388;2022-11-09T07:41:33;34.38;;;20.83;;
42668;SDS011;29384;42.028;21.388;2022-11-09T07:43:59;41.63;;;20.40;;
42668;SDS011;29384;42.028;21.388;2022-11-09T07:46:24;37.10;;;19.27;;
42668;SDS011;29384;42.028;21.388;2022-11-09T07:48:50;42.78;;;20.95;;
42668;SDS011;29384;42.028;21.388;2022-11-09T07:51:15;41.33;;;19.58;;
42668;SDS011;29384;42.028;21.388;2022-11-09T07:53:41;42.35;;;21.10;;
42668;SDS011;29384;42.028;21.388;2022-11-09T07:59:28;40.38;;;21.25;;
42668;SDS011;29384;42.028;21.388;2022-11-09T08:01:55;35.97;;;20.30;;
42668;SDS011;29384;42.028;21.388;2022-11-09T08:04:21;37.00;;;19.10;;
42668;SDS011;29384;42.028;21.388;2022-11-09T08:06:47;43.63;;;21.70;;
42668;SDS011;29384;42.028;21.388;2022-11-09T08:09:15;32.78;;;20.83;;
42668;SDS011;29384;42.028;21.388;2022-11-09T08:11:41;38.90;;;21.23;;
42668;SDS011;29384;42.028;21.388;2022-11-09T08:14:06;40.15;;;19.25;;
42668;SDS011;29384;42.028;21.388;2022-11-09T08:16:31;35.05;;;19.10;;
42668;SDS011;29384;42.028;21.388;2022-11-09T08:18:57;39.80;;;21.35;;
42668;SDS011;29384;42.028;21.388;2022-11-09T08:21:22;34.03;;;19.50;;
42668;SDS011;29384;42.028;21.388;2022-11-09T08:23:48;36.35;;;17.25;;
42668;SDS011;29384;42.028;21.388;2022-11-09T08:29:36;34.65;;;18.67;;
42668;SDS011;29384;42.028;21.388;2022-11-09T08:32:01;32.92;;;18.13;;
42668;SDS011;29384;42.028;21.388;2022-11-09T08:34:26;39.17;;;20.50;;
42668;SDS011;29384;42.028;21.388;2022-11-09T08:36:52;45.40;;;21.33;;
42668;SDS011;29384;42.028;21.388;2022-11-09T08:39:17;38.25;;;20.77;;
42668;SDS011;29384;42.028;21.388;2022-11-09T08:45:05;31.45;;;18.83;;
42668;SDS011;29384;42.028;21.388;2022-11-09T08:47:32;39.00;;;21.15;;
42668;SDS011;29384;42.028;21.388;2022-11-09T08:49:58;46.85;;;21.63;;
42668;SDS011;29384;42.028;21.388;2022-11-09T08:52:24;45.00;;;20.63;;
42668;SDS011;29384;42.028;21.388;2022-11-09T08:54:50;40.67;;;21.63;;
42668;SDS011;29384;42.028;21.388;2022-11-09T08:57:23;42.90;;;20.60;;
42668;SDS011;29384;42.028;21.388;2022-11-09T08:59:48;45.10;;;19.73;;
42668;SDS011;29384;42.028;21.388;2022-11-09T09:02:16;41.45;;;21.58;;
42668;SDS011;29384;42.028;21.388;2022-11-09T09:04:45;45.55;;;21.13;;
42668;SDS011;29384;42.028;21.388;2022-11-09T09:07:20;36.38;;;19.23;;
42668;SDS011;29384;42.028;21.388;2022-11-09T09:09:46;36.22;;;18.90;;
42668;SDS011;29384;42.028;21.388;2022-11-09T09:12:27;39.20;;;19.92;;
42668;SDS011;29384;42.028;21.388;2022-11-09T09:14:55;39.95;;;19.20;;
42668;SDS011;29384;42.028;21.388;2022-11-09T09:17:20;37.58;;;19.25;;
42668;SDS011;29384;42.028;21.388;2022-11-09T09:19:46;36.38;;;18.98;;
42668;SDS011;29384;42.028;21.388;2022-11-09T09:22:11;38.85;;;19.75;;
42668;SDS011;29384;42.028;21.388;2022-11-09T09:24:37;49.17;;;20.63;;
42668;SDS011;29384;42.028;21.388;2022-11-09T09:27:05;38.35;;;19.77;;
42668;SDS011;29384;42.028;21.388;2022-11-09T09:29:33;42.47;;;20.15;;
42668;SDS011;29384;42.028;21.388;2022-11-09T09:32:02;35.53;;;17.25;;
42668;SDS011;29384;42.028;21.388;2022-11-09T09:34:30;39.08;;;20.65;;
42668;SDS011;29384;42.028;21.388;2022-11-09T09:36:57;44.47;;;20.45;;
42668;SDS011;29384;42.028;21.388;2022-11-09T09:39:23;47.85;;;22.65;;
42668;SDS011;29384;42.028;21.388;2022-11-09T09:45:29;49.50;;;22.48;;
42668;SDS011;29384;42.028;21.388;2022-11-09T09:50:51;50.75;;;21.17;;
42668;SDS011;29384;42.028;21.388;2022-11-09T09:56:17;43.50;;;21.25;;
42668;SDS011;29384;42.028;21.388;2022-11-09T09:58:52;50.22;;;22.98;;
42668;SDS011;29384;42.028;21.388;2022-11-09T10:01:28;60.97;;;24.23;;
42668;SDS011;29384;42.028;21.388;2022-11-09T10:04:53;44.63;;;22.95;;
42668;SDS011;29384;42.028;21.388;2022-11-09T10:07:06;53.05;;;23.80;;
42668;SDS011;29384;42.028;21.388;2022-11-09T10:24:10;52.95;;;27.20;;
42668;SDS011;29384;42.028;21.388;2022-11-09T10:30:42;68.47;;;30.65;;
42668;SDS011;29384;42.028;21.388;2022-11-09T10:35:53;73.45;;;31.92;;
42668;SDS011;29384;42.028;21.388;2022-11-09T10:38:31;69.82;;;30.92;;
42668;SDS011;29384;42.028;21.388;2022-11-09T10:44:23;83.03;;;34.03;;
42668;SDS011;29384;42.028;21.388;2022-11-09T10:47:12;65.90;;;30.23;;
42668;SDS011;29384;42.028;21.388;2022-11-09T10:49:41;77.97;;;34.00;;
42668;SDS011;29384;42.028;21.388;2022-11-09T10:52:28;64.82;;;32.67;;
42668;SDS011;29384;42.028;21.388;2022-11-09T10:55:20;73.53;;;32.33;;
42668;SDS011;29384;42.028;21.388;2022-11-09T10:57:51;79.40;;;34.13;;
42668;SDS011;29384;42.028;21.388;2022-11-09T11:00:25;62.78;;;28.48;;
42668;SDS011;29384;42.028;21.388;2022-11-09T11:02:54;72.78;;;29.65;;
42668;SDS011;29384;42.028;21.388;2022-11-09T11:05:22;63.45;;;30.42;;
42668;SDS011;29384;42.028;21.388;2022-11-09T11:07:49;67.03;;;32.10;;
42668;SDS011;29384;42.028;21.388;2022-11-09T11:12:51;76.28;;;27.88;;
42668;SDS011;29384;42.028;21.388;2022-11-09T11:15:39;61.83;;;28.80;;
42668;SDS011;29384;42.028;21.388;2022-11-09T11:18:25;60.30;;;27.63;;
42668;SDS011;29384;42.028;21.388;2022-11-09T11:21:05;67.43;;;30.70;;
42668;SDS011;29384;42.028;21.388;2022-11-09T11:23:42;63.63;;;31.65;;
42668;SDS011;29384;42.028;21.388;2022-11-09T11:28:49;72.78;;;33.28;;
42668;SDS011;29384;42.028;21.388;2022-11-09T11:31:19;70.65;;;30.65;;
42668;SDS011;29384;42.028;21.388;2022-11-09T11:33:46;61.15;;;28.30;;
42668;SDS011;29384;42.028;21.388;2022-11-09T11:36:17;61.88;;;28.58;;
42668;SDS011;29384;42.028;21.388;2022-11-09T11:38:56;58.50;;;27.52;;
42668;SDS011;29384;42.028;21.388;2022-11-09T11:47:22;63.90;;;28.48;;
42668;SDS011;29384;42.028;21.388;2022-11-09T11:53:08;67.63;;;28.55;;
42668;SDS011;29384;42.028;21.388;2022-11-09T11:59:25;57.10;;;25.70;;
42668;SDS011;29384;42.028;21.388;2022-11-09T12:23:37;74.18;;;28.25;;
42668;SDS011;29384;42.028;21.388;2022-11-09T12:26:24;73.82;;;28.88;;
42668;SDS011;29384;42.028;21.388;2022-11-09T12:31:53;70.40;;;29.90;;
42668;SDS011;29384;42.028;21.388;2022-11-09T12:37:15;70.32;;;29.90;;
42668;SDS011;29384;42.028;21.388;2022-11-09T12:39:45;70.88;;;29.58;;
42668;SDS011;29384;42.028;21.388;2022-11-09T12:45:05;60.65;;;27.48;;
42668;SDS011;29384;42.028;21.388;2022-11-09T12:47:45;63.17;;;28.80;;
42668;SDS011;29384;42.028;21.388;2022-11-09T12:50:11;66.25;;;27.85;;
42668;SDS011;29384;42.028;21.388;2022-11-09T12:52:40;62.38;;;27.10;;
42668;SDS011;29384;42.028;21.388;2022-11-09T12:55:11;66.05;;;28.05;;
42668;SDS011;29384;42.028;21.388;2022-11-09T12:57:39;57.22;;;27.35;;
42668;SDS011;29384;42.028;21.388;2022-11-09T13:02:59;66.47;;;29.40;;
42668;SDS011;29384;42.028;21.388;2022-11-09T13:05:30;59.50;;;26.67;;
42668;SDS011;29384;42.028;21.388;2022-11-09T13:07:58;61.65;;;27.88;;
42668;SDS011;29384;42.028;21.388;2022-11-09T13:13:28;67.93;;;27.05;;
42668;SDS011;29384;42.028;21.388;2022-11-09T13:16:04;61.65;;;30.92;;
42668;SDS011;29384;42.028;21.388;2022-11-09T13:23:51;57.13;;;26.70;;
42668;SDS011;29384;42.028;21.388;2022-11-09T13:34:44;55.70;;;23.05;;
42668;SDS011;29384;42.028;21.388;2022-11-09T13:48:53;57.30;;;25.95;;
42668;SDS011;29384;42.028;21.388;2022-11-09T13:54:01;44.38;;;23.60;;
42668;SDS011;29384;42.028;21.388;2022-11-09T13:56:50;50.83;;;23.75;;
42668;SDS011;29384;42.028;21.388;2022-11-09T13:59:25;45.88;;;23.10;;
42668;SDS011;29384;42.028;21.388;2022-11-09T14:01:58;45.42;;;23.48;;
42668;SDS011;29384;42.028;21.388;2022-11-09T14:07:05;53.60;;;23.33;;
42668;SDS011;29384;42.028;21.388;2022-11-09T14:12:46;37.88;;;19.65;;
42668;SDS011;29384;42.028;21.388;2022-11-09T14:21:11;41.50;;;21.83;;
42668;SDS011;29384;42.028;21.388;2022-11-09T14:24:00;50.15;;;22.42;;
42668;SDS011;29384;42.028;21.388;2022-11-09T14:29:56;49.45;;;22.38;;
42668;SDS011;29384;42.028;21.388;2022-11-09T14:34:50;42.45;;;20.23;;
42668;SDS011;29384;42.028;21.388;2022-11-09T14:37:16;37.60;;;20.75;;
42668;SDS011;29384;42.028;21.388;2022-11-09T14:39:42;56.78;;;21.05;;
42668;SDS011;29384;42.028;21.388;2022-11-09T14:45:34;51.80;;;23.60;;
42668;SDS011;29384;42.028;21.388;2022-11-09T14:48:00;41.58;;;22.20;;
42668;SDS011;29384;42.028;21.388;2022-11-09T14:50:28;36.97;;;20.73;;
42668;SDS011;29384;42.028;21.388;2022-11-09T14:52:56;37.92;;;20.73;;
42668;SDS011;29384;42.028;21.388;2022-11-09T14:55:23;42.70;;;21.88;;
42668;SDS011;29384;42.028;21.388;2022-11-09T15:03:44;46.55;;;23.02;;
42668;SDS011;29384;42.028;21.388;2022-11-09T15:06:30;38.03;;;20.95;;
42668;SDS011;29384;42.028;21.388;2022-11-09T15:08:58;41.10;;;22.40;;
42668;SDS011;29384;42.028;21.388;2022-11-09T15:11:33;48.28;;;23.25;;
42668;SDS011;29384;42.028;21.388;2022-11-09T15:14:12;38.78;;;21.05;;
42668;SDS011;29384;42.028;21.388;2022-11-09T15:16:46;49.78;;;24.17;;
42668;SDS011;29384;42.028;21.388;2022-11-09T15:19:19;63.17;;;25.90;;
42668;SDS011;29384;42.028;21.388;2022-11-09T15:21:52;49.15;;;25.25;;
42668;SDS011;29384;42.028;21.388;2022-11-09T15:24:19;52.03;;;26.08;;
42668;SDS011;29384;42.028;21.388;2022-11-09T15:26:47;49.03;;;25.10;;
42668;SDS011;29384;42.028;21.388;2022-11-09T15:34:35;44.05;;;22.02;;
42668;SDS011;29384;42.028;21.388;2022-11-09T15:37:02;57.85;;;25.90;;
42668;SDS011;29384;42.028;21.388;2022-11-09T15:39:29;51.83;;;24.88;;
42668;SDS011;29384;42.028;21.388;2022-11-09T15:41:54;41.03;;;21.55;;
42668;SDS011;29384;42.028;21.388;2022-11-09T15:44:21;41.92;;;21.05;;
42668;SDS011;29384;42.028;21.388;2022-11-09T15:46:48;40.92;;;20.38;;
42668;SDS011;29384;42.028;21.388;2022-11-09T15:49:17;41.72;;;21.55;;
42668;SDS011;29384;42.028;21.388;2022-11-09T15:51:46;42.30;;;21.98;;
42668;SDS011;29384;42.028;21.388;2022-11-09T15:54:12;45.25;;;24.30;;
42668;SDS011;29384;42.028;21.388;2022-11-09T15:56:38;47.33;;;21.60;;
42668;SDS011;29384;42.028;21.388;2022-11-09T15:59:05;45.90;;;23.85;;
42668;SDS011;29384;42.028;21.388;2022-11-09T16:01:31;47.25;;;22.92;;
42668;SDS011;29384;42.028;21.388;2022-11-09T16:03:57;60.40;;;22.70;;
42668;SDS011;29384;42.028;21.388;2022-11-09T16:06:22;42.50;;;21.60;;
42668;SDS011;29384;42.028;21.388;2022-11-09T16:08:48;40.33;;;21.25;;
42668;SDS011;29384;42.028;21.388;2022-11-09T16:11:15;45.55;;;22.20;;
42668;SDS011;29384;42.028;21.388;2022-11-09T16:17:02;55.63;;;21.90;;
42668;SDS011;29384;42.028;21.388;2022-11-09T16:19:28;46.78;;;21.45;;
42668;SDS011;29384;42.028;21.388;2022-11-09T16:21:53;47.05;;;21.58;;
42668;SDS011;29384;42.028;21.388;2022-11-09T16:24:19;48.00;;;22.50;;
42668;SDS011;29384;42.028;21.388;2022-11-09T16:26:45;42.15;;;22.65;;
42668;SDS011;29384;42.028;21.388;2022-11-09T16:33:09;38.47;;;20.60;;
42668;SDS011;29384;42.028;21.388;2022-11-09T16:35:34;46.60;;;24.23;;
42668;SDS011;29384;42.028;21.388;2022-11-09T16:38:00;43.38;;;23.98;;
42668;SDS011;29384;42.028;21.388;2022-11-09T16:40:27;53.10;;;24.27;;
42668;SDS011;29384;42.028;21.388;2022-11-09T16:42:53;63.63;;;24.20;;
42668;SDS011;29384;42.028;21.388;2022-11-09T16:45:19;46.60;;;23.45;;
42668;SDS011;29384;42.028;21.388;2022-11-09T16:47:49;50.53;;;24.13;;
42668;SDS011;29384;42.028;21.388;2022-11-09T16:50:20;52.70;;;26.65;;
42668;SDS011;29384;42.028;21.388;2022-11-09T16:52:45;44.90;;;24.83;;
42668;SDS011;29384;42.028;21.388;2022-11-09T16:55:11;41.65;;;22.00;;
42668;SDS011;29384;42.028;21.388;2022-11-09T16:57:36;38.00;;;20.50;;
42668;SDS011;29384;42.028;21.388;2022-11-09T17:00:03;43.25;;;23.38;;
42668;SDS011;29384;42.028;21.388;2022-11-09T17:02:30;47.25;;;21.95;;
42668;SDS011;29384;42.028;21.388;2022-11-09T17:04:55;54.20;;;23.83;;
42668;SDS011;29384;42.028;21.388;2022-11-09T17:07:21;59.90;;;22.65;;
42668;SDS011;29384;42.028;21.388;2022-11-09T17:09:47;48.35;;;24.35;;
42668;SDS011;29384;42.028;21.388;2022-11-09T17:12:12;43.95;;;23.27;;
42668;SDS011;29384;42.028;21.388;2022-11-09T17:18:00;48.65;;;22.65;;
42668;SDS011;29384;42.028;21.388;2022-11-09T17:20:25;51.15;;;25.00;;
42668;SDS011;29384;42.028;21.388;2022-11-09T17:22:50;42.42;;;23.10;;
42668;SDS011;29384;42.028;21.388;2022-11-09T17:25:16;55.47;;;23.00;;
42668;SDS011;29384;42.028;21.388;2022-11-09T17:27:42;46.25;;;23.73;;
42668;SDS011;29384;42.028;21.388;2022-11-09T17:30:07;44.72;;;23.85;;
42668;SDS011;29384;42.028;21.388;2022-11-09T17:32:33;50.65;;;25.17;;
42668;SDS011;29384;42.028;21.388;2022-11-09T17:34:59;54.38;;;27.48;;
42668;SDS011;29384;42.028;21.388;2022-11-09T17:37:24;65.88;;;30.13;;
42668;SDS011;29384;42.028;21.388;2022-11-09T17:39:50;52.28;;;25.45;;
42668;SDS011;29384;42.028;21.388;2022-11-09T17:42:15;59.17;;;27.33;;
42668;SDS011;29384;42.028;21.388;2022-11-09T17:48:17;59.30;;;25.75;;
42668;SDS011;29384;42.028;21.388;2022-11-09T17:50:42;62.20;;;28.13;;
42668;SDS011;29384;42.028;21.388;2022-11-09T17:53:07;50.17;;;24.48;;
42668;SDS011;29384;42.028;21.388;2022-11-09T17:55:35;47.17;;;23.65;;
42668;SDS011;29384;42.028;21.388;2022-11-09T17:58:02;46.20;;;22.85;;